createdAt,value
2023-04-11T00:02:16.351Z,3.25
2023-04-11T00:04:44.243Z,3.47
2023-04-11T00:07:13.283Z,3.50
2023-04-11T00:09:41.056Z,3.17
2023-04-11T00:12:08.887Z,3.42
2023-04-11T00:14:36.573Z,2.88
2023-04-11T00:17:06.037Z,3.30
2023-04-11T00:19:33.670Z,2.90
2023-04-11T00:22:01.510Z,3.30
2023-04-11T00:24:30.519Z,2.95
2023-04-11T00:26:58.321Z,2.95
2023-04-11T00:29:26.061Z,3.10
2023-04-11T00:31:55.614Z,2.90
2023-04-11T00:34:23.559Z,2.80
2023-04-11T00:36:51.457Z,2.78
2023-04-11T00:39:20.325Z,2.97
2023-04-11T00:41:50.214Z,3.42
2023-04-11T00:44:18.008Z,2.70
2023-04-11T00:46:47.318Z,3.03
2023-04-11T00:49:15.001Z,3.10
2023-04-11T00:51:42.681Z,3.00
2023-04-11T00:54:10.463Z,2.63
2023-04-11T00:56:38.367Z,2.58
2023-04-11T00:59:07.412Z,2.80
2023-04-11T01:01:36.280Z,2.70
2023-04-11T01:04:04.564Z,3.15
2023-04-11T01:06:33.637Z,2.58
2023-04-11T01:09:01.380Z,2.42
2023-04-11T01:11:29.249Z,3.08
2023-04-11T01:13:57.127Z,2.83
2023-04-11T01:16:26.491Z,3.10
2023-04-11T01:18:54.584Z,3.50
2023-04-11T01:21:23.118Z,2.83
2023-04-11T01:23:54.232Z,3.20
2023-04-11T01:26:21.923Z,2.90
2023-04-11T01:28:49.761Z,3.80
2023-04-11T01:31:17.931Z,2.72
2023-04-11T01:33:45.868Z,3.13
2023-04-11T01:36:14.092Z,2.92
2023-04-11T01:38:42.109Z,3.10
2023-04-11T01:41:12.237Z,2.63
2023-04-11T01:43:39.936Z,2.33
2023-04-11T01:46:08.913Z,2.80
2023-04-11T01:48:38.554Z,2.45
2023-04-11T01:51:07.245Z,2.50
2023-04-11T01:53:34.928Z,2.70
2023-04-11T01:56:02.577Z,2.30
2023-04-11T01:58:31.737Z,2.58
2023-04-11T02:00:59.518Z,2.80
2023-04-11T02:03:27.339Z,2.38
2023-04-11T02:05:56.983Z,2.17
2023-04-11T02:08:24.715Z,2.85
2023-04-11T02:10:52.358Z,2.65
2023-04-11T02:13:20.030Z,2.67
2023-04-11T02:15:49.196Z,2.55
2023-04-11T02:18:17.086Z,2.95
2023-04-11T02:20:44.796Z,2.45
2023-04-11T02:23:12.831Z,2.10
2023-04-11T02:25:40.650Z,2.05
2023-04-11T02:28:08.602Z,2.83
2023-04-11T02:30:36.464Z,2.55
2023-04-11T02:33:05.800Z,2.00
2023-04-11T02:35:34.203Z,2.35
2023-04-11T02:38:01.873Z,2.28
2023-04-11T02:40:31.148Z,2.60
2023-04-11T02:43:01.119Z,2.50
2023-04-11T02:45:29.056Z,2.70
2023-04-11T02:47:56.728Z,3.22
2023-04-11T02:50:27.051Z,3.25
2023-04-11T02:52:55.387Z,3.50
2023-04-11T02:55:27.070Z,2.92
2023-04-11T02:57:54.806Z,3.47
2023-04-11T03:00:23.120Z,3.30
2023-04-11T03:02:59.072Z,2.35
2023-04-11T03:05:28.959Z,1.70
2023-04-11T03:07:57.730Z,1.55
2023-04-11T03:10:26.922Z,1.70
2023-04-11T03:12:55.025Z,1.65
2023-04-11T03:15:22.862Z,2.28
2023-04-11T03:17:50.572Z,1.40
2023-04-11T03:20:19.851Z,1.23
2023-04-11T03:22:51.931Z,1.15
2023-04-11T03:25:21.225Z,1.30
2023-04-11T03:27:50.912Z,1.20
2023-04-11T03:30:18.540Z,1.65
2023-04-11T03:32:48.558Z,1.00
2023-04-11T03:35:18.688Z,1.10
2023-04-11T03:37:47.996Z,0.90
2023-04-11T03:40:18.701Z,0.90
2023-04-11T03:42:51.850Z,0.80
2023-04-11T03:45:23.901Z,0.85
2023-04-11T03:47:53.738Z,1.20
2023-04-11T03:50:25.424Z,1.67
2023-04-11T03:52:58.394Z,1.10
2023-04-11T03:55:27.465Z,1.30
2023-04-11T03:57:57.643Z,1.30
2023-04-11T04:00:26.372Z,1.58
2023-04-11T04:03:02.586Z,1.50
2023-04-11T04:05:30.414Z,1.85
2023-04-11T04:07:58.187Z,1.60
2023-04-11T04:10:40.080Z,1.35
2023-04-11T04:13:07.716Z,1.30
2023-04-11T04:15:39.975Z,1.30
2023-04-11T04:18:09.522Z,1.33
2023-04-11T04:20:42.897Z,2.28
2023-04-11T04:23:14.176Z,1.60
2023-04-11T04:26:02.078Z,1.00
2023-04-11T04:28:31.822Z,1.17
2023-04-11T04:31:02.143Z,1.20
2023-04-11T04:33:35.330Z,0.90
2023-04-11T04:36:10.092Z,0.93
2023-04-11T04:38:42.006Z,1.13
2023-04-11T04:41:15.462Z,1.17
2023-04-11T04:43:48.768Z,1.20
2023-04-11T04:46:23.589Z,1.10
2023-04-11T04:48:52.644Z,1.05
2023-04-11T04:51:20.606Z,1.00
2023-04-11T04:53:48.303Z,1.58
2023-04-11T04:56:17.709Z,1.02
2023-04-11T04:58:48.075Z,1.00
2023-04-11T05:01:17.632Z,0.82
2023-04-11T05:03:50.794Z,1.00
2023-04-11T05:06:28.719Z,0.90
2023-04-11T05:08:57.398Z,1.17
2023-04-11T05:11:27.066Z,0.60
2023-04-11T05:13:55.857Z,0.95
2023-04-11T05:16:23.942Z,0.88
2023-04-11T05:18:51.759Z,0.80
2023-04-11T05:21:19.656Z,1.00
2023-04-11T05:23:51.047Z,0.75
2023-04-11T05:26:19.137Z,0.98
2023-04-11T05:28:48.152Z,0.80
2023-04-11T05:31:19.345Z,0.90
2023-04-11T05:33:47.178Z,0.95
2023-04-11T05:36:15.166Z,1.00
2023-04-11T05:38:43.467Z,0.73
2023-04-11T05:41:11.875Z,0.80
2023-04-11T05:43:39.982Z,0.80
2023-04-11T05:46:10.882Z,1.17
2023-04-11T05:48:39.167Z,0.77
2023-04-11T05:51:07.864Z,1.20
2023-04-11T05:53:35.971Z,0.77
2023-04-11T05:56:03.712Z,1.08
2023-04-11T05:58:31.455Z,1.30
2023-04-11T06:00:59.861Z,1.10
2023-04-11T06:03:29.051Z,1.05
2023-04-11T06:05:56.796Z,1.20
2023-04-11T06:08:24.417Z,1.02
2023-04-11T06:10:52.047Z,1.48
2023-04-11T06:13:19.697Z,1.00
2023-04-11T06:15:47.419Z,1.17
2023-04-11T06:18:15.398Z,1.10
2023-04-11T06:20:46.192Z,1.10
2023-04-11T06:23:14.028Z,1.15
2023-04-11T06:25:41.785Z,1.40
2023-04-11T06:28:09.560Z,1.15
2023-04-11T06:30:37.371Z,1.50
2023-04-11T06:33:05.321Z,1.50
2023-04-11T06:35:33.022Z,1.55
2023-04-11T06:38:02.142Z,1.60
2023-04-11T06:40:29.896Z,1.75
2023-04-11T06:42:58.564Z,1.80
2023-04-11T06:45:26.449Z,1.80
2023-04-11T06:47:54.284Z,2.08
2023-04-11T06:50:22.427Z,2.13
2023-04-11T06:52:50.125Z,2.60
2023-04-11T06:55:19.414Z,2.15
2023-04-11T06:57:47.190Z,2.35
2023-04-11T07:00:16.421Z,2.30
2023-04-11T07:02:44.812Z,2.30
2023-04-11T07:05:12.894Z,1.80
2023-04-11T07:07:40.565Z,1.35
2023-04-11T07:10:09.644Z,1.30
2023-04-11T07:12:38.658Z,1.00
2023-04-11T07:15:07.358Z,0.90
2023-04-11T07:17:35.050Z,0.90
2023-04-11T07:20:04.686Z,1.00
2023-04-11T07:22:32.264Z,0.80
2023-04-11T07:24:59.845Z,0.60
2023-04-11T07:27:27.444Z,0.80
2023-04-11T07:29:57.343Z,1.13
2023-04-11T07:32:25.156Z,1.02
2023-04-11T07:34:52.815Z,0.82
2023-04-11T07:37:20.824Z,1.10
2023-04-11T07:39:49.370Z,1.23
2023-04-11T07:42:16.936Z,0.93
2023-04-11T07:44:44.515Z,1.15
2023-04-11T07:47:13.546Z,0.93
2023-04-11T07:49:41.416Z,1.17
2023-04-11T07:52:09.063Z,0.80
2023-04-11T07:54:36.876Z,1.30
2023-04-11T07:57:04.523Z,1.05
2023-04-11T07:59:32.300Z,1.08
2023-04-11T08:02:00.957Z,1.38
2023-04-11T08:04:34.367Z,1.10
2023-04-11T08:07:02.415Z,1.30
2023-04-11T08:09:30.306Z,1.23
2023-04-11T08:11:58.462Z,1.23
2023-04-11T08:14:26.308Z,1.83
2023-04-11T08:16:54.466Z,1.50
2023-04-11T08:19:22.383Z,1.60
2023-04-11T08:21:52.738Z,1.27
2023-04-11T08:24:20.498Z,1.83
2023-04-11T08:26:48.282Z,1.92
2023-04-11T08:29:16.046Z,2.10
2023-04-11T08:31:44.722Z,1.88
2023-04-11T08:34:13.060Z,2.10
2023-04-11T08:36:41.463Z,2.13
2023-04-11T08:39:10.477Z,2.40
2023-04-11T08:41:39.527Z,2.58
2023-04-11T08:44:11.818Z,2.20
2023-04-11T08:46:42.921Z,2.30
2023-04-11T08:49:10.752Z,2.72
2023-04-11T08:51:42.945Z,2.97
2023-04-11T08:54:12.143Z,3.22
2023-04-11T08:56:42.815Z,3.95
2023-04-11T08:59:10.506Z,3.78
2023-04-11T09:01:41.070Z,3.97
2023-04-11T09:04:10.542Z,4.53
2023-04-11T09:06:40.004Z,4.82
2023-04-11T09:09:08.126Z,4.60
2023-04-11T09:11:55.226Z,4.75
2023-04-11T09:14:26.775Z,4.65
2023-04-11T09:16:55.996Z,5.30
2023-04-11T09:19:28.002Z,5.50
2023-04-11T09:21:58.086Z,6.13
2023-04-11T09:24:26.329Z,6.03
2023-04-11T09:27:09.996Z,5.97
2023-04-11T09:29:39.487Z,6.28
2023-04-11T09:32:07.683Z,6.18
2023-04-11T09:34:37.618Z,7.18
2023-04-11T09:37:05.732Z,6.32
2023-04-11T09:39:33.397Z,5.82
2023-04-11T09:42:03.113Z,6.05
2023-04-11T09:44:39.269Z,6.05
2023-04-11T09:47:07.130Z,5.30
2023-04-11T09:49:36.109Z,4.78
2023-04-11T09:52:04.736Z,4.45
2023-04-11T09:54:33.271Z,3.92
2023-04-11T09:57:01.309Z,3.38
2023-04-11T09:59:31.180Z,3.10
2023-04-11T10:02:00.562Z,2.97
2023-04-11T10:04:28.802Z,3.25
2023-04-11T10:07:06.802Z,3.22
2023-04-11T10:09:38.716Z,3.25
2023-04-11T10:12:07.205Z,3.00
2023-04-11T10:14:45.357Z,2.13
2023-04-11T10:17:20.472Z,1.75
2023-04-11T10:19:51.462Z,1.90
2023-04-11T10:22:56.957Z,1.58
2023-04-11T10:25:25.183Z,1.80
2023-04-11T10:27:54.716Z,2.00
2023-04-11T10:30:56.143Z,2.10
2023-04-11T10:33:26.887Z,1.98
2023-04-11T10:35:58.920Z,1.50
2023-04-11T10:38:48.105Z,1.48
2023-04-11T10:41:18.913Z,1.38
2023-04-11T10:43:46.903Z,1.42
2023-04-11T10:46:19.341Z,1.00
2023-04-11T10:49:03.181Z,1.27
2023-04-11T10:51:31.898Z,0.90
2023-04-11T10:54:00.705Z,1.00
2023-04-11T10:56:56.693Z,1.15
2023-04-11T11:00:01.980Z,0.88
2023-04-11T11:02:40.066Z,0.90
2023-04-11T11:05:20.744Z,1.23
2023-04-11T11:07:50.212Z,1.02
2023-04-11T11:10:35.969Z,1.10
2023-04-11T11:13:04.818Z,0.90
2023-04-11T11:15:36.470Z,0.68
2023-04-11T11:18:06.309Z,0.73
2023-04-11T11:20:36.705Z,1.10
2023-04-11T11:23:05.980Z,0.70
2023-04-11T11:25:33.714Z,0.77
2023-04-11T11:28:03.037Z,0.63
2023-04-11T11:30:31.066Z,1.02
2023-04-11T11:32:58.988Z,1.27
2023-04-11T11:35:27.413Z,1.08
2023-04-11T11:37:56.448Z,1.30
2023-04-11T11:40:24.432Z,1.20
2023-04-11T11:42:53.046Z,1.10
2023-04-11T11:45:22.554Z,1.33
2023-04-11T11:47:51.634Z,1.50
2023-04-11T11:50:27.433Z,1.67
2023-04-11T11:52:56.956Z,1.40
2023-04-11T11:55:33.013Z,1.42
2023-04-11T11:58:02.674Z,1.80
2023-04-11T12:00:37.642Z,1.60
2023-04-11T12:03:06.676Z,1.50
2023-04-11T12:05:35.530Z,1.42
2023-04-11T12:08:06.034Z,1.35
2023-04-11T12:10:39.184Z,0.82
2023-04-11T12:13:15.360Z,1.00
2023-04-11T12:15:47.148Z,1.00
2023-04-11T12:18:14.886Z,1.20
2023-04-11T12:20:42.600Z,1.10
2023-04-11T12:23:11.725Z,1.00
2023-04-11T12:25:40.898Z,0.90
2023-04-11T12:28:09.437Z,1.30
2023-04-11T12:30:37.276Z,1.05
2023-04-11T12:33:06.184Z,1.15
2023-04-11T12:35:34.226Z,1.63
2023-04-11T12:38:01.901Z,1.70
2023-04-11T12:40:30.875Z,1.67
2023-04-11T12:42:58.518Z,1.05
2023-04-11T12:45:26.893Z,1.50
2023-04-11T12:47:54.992Z,1.23
2023-04-11T12:50:24.406Z,1.50
2023-04-11T12:52:52.372Z,1.13
2023-04-11T12:55:20.156Z,1.15
2023-04-11T12:57:49.247Z,0.93
2023-04-11T13:00:17.981Z,1.35
2023-04-11T13:02:45.912Z,1.83
2023-04-11T13:05:15.527Z,1.20
2023-04-11T13:07:46.152Z,1.40
2023-04-11T13:10:15.782Z,1.52
2023-04-11T13:12:45.740Z,1.60
2023-04-11T13:15:17.286Z,1.92
2023-04-11T13:17:45.134Z,1.83
2023-04-11T13:20:13.560Z,1.80
2023-04-11T13:22:43.184Z,1.90
2023-04-11T13:25:11.980Z,2.70
2023-04-11T13:27:40.147Z,2.33
2023-04-11T13:30:09.949Z,2.08
2023-04-11T13:32:40.021Z,2.35
2023-04-11T13:35:08.820Z,1.85
2023-04-11T13:37:36.506Z,2.05
2023-04-11T13:40:08.301Z,2.45
2023-04-11T13:42:36.200Z,2.35
2023-04-11T13:45:04.444Z,3.15
2023-04-11T13:47:32.408Z,2.95
2023-04-11T13:50:01.471Z,3.42
2023-04-11T13:52:29.223Z,2.10
2023-04-11T13:54:56.876Z,2.47
2023-04-11T13:57:24.581Z,2.10
2023-04-11T13:59:52.226Z,1.80
2023-04-11T14:02:20.042Z,2.30
2023-04-11T14:04:47.760Z,2.75
2023-04-11T14:07:16.772Z,2.38
2023-04-11T14:09:44.436Z,2.20
2023-04-11T14:12:12.115Z,2.45
2023-04-11T14:14:39.713Z,3.15
2023-04-11T14:17:07.497Z,3.97
2023-04-11T14:19:35.390Z,4.25
2023-04-11T14:22:03.065Z,3.13
2023-04-11T14:24:32.505Z,3.90
2023-04-11T14:27:00.214Z,3.78
2023-04-11T14:29:29.790Z,4.55
2023-04-11T14:31:57.790Z,3.88
2023-04-11T14:34:25.432Z,3.58
2023-04-11T14:36:53.251Z,4.45
2023-04-11T14:39:21.016Z,3.58
2023-04-11T14:41:50.259Z,3.83
2023-04-11T14:44:17.974Z,3.67
2023-04-11T14:46:45.835Z,3.67
2023-04-11T14:49:13.534Z,3.95
2023-04-11T14:51:41.356Z,4.22
2023-04-11T14:54:09.012Z,4.70
2023-04-11T14:56:37.055Z,4.40
2023-04-11T14:59:06.701Z,3.53
2023-04-11T15:01:34.409Z,3.10
2023-04-11T15:04:02.272Z,3.33
2023-04-11T15:06:30.152Z,3.15
2023-04-11T15:08:57.779Z,2.47
2023-04-11T15:11:26.127Z,2.97
2023-04-11T15:13:53.931Z,2.65
2023-04-11T15:16:23.087Z,2.30
2023-04-11T15:18:51.283Z,2.75
2023-04-11T15:21:18.937Z,3.00
2023-04-11T15:23:46.623Z,2.72
2023-04-11T15:26:14.285Z,3.38
2023-04-11T15:28:43.142Z,2.92
2023-04-11T15:31:12.955Z,3.35
2023-04-11T15:33:42.348Z,3.25
2023-04-11T15:36:10.599Z,2.85
2023-04-11T15:38:38.449Z,3.42
2023-04-11T15:41:07.481Z,2.92
2023-04-11T15:43:35.250Z,3.28
2023-04-11T15:46:03.757Z,3.30
2023-04-11T15:48:31.644Z,3.00
2023-04-11T15:51:00.626Z,2.60
2023-04-11T15:53:28.229Z,1.80
2023-04-11T15:55:56.243Z,2.20
2023-04-11T15:58:23.865Z,2.30
2023-04-11T16:00:54.822Z,2.25
2023-04-11T16:03:22.810Z,1.90
2023-04-11T16:05:52.938Z,2.13
2023-04-11T16:08:22.732Z,2.38
2023-04-11T16:10:50.361Z,2.17
2023-04-11T16:13:18.400Z,2.22
2023-04-11T16:15:46.138Z,1.70
2023-04-11T16:18:13.837Z,1.90
2023-04-11T16:20:41.496Z,1.83
2023-04-11T16:23:09.110Z,1.67
2023-04-11T16:25:38.449Z,1.75
2023-04-11T16:28:06.186Z,1.60
2023-04-11T16:30:33.848Z,2.00
2023-04-11T16:33:01.896Z,1.92
2023-04-11T16:35:29.557Z,2.00
2023-04-11T16:37:57.270Z,2.10
2023-04-11T16:40:25.263Z,1.95
2023-04-11T16:42:54.292Z,1.58
2023-04-11T16:45:22.206Z,1.20
2023-04-11T16:47:49.916Z,1.73
2023-04-11T16:50:18.383Z,2.08
2023-04-11T16:52:46.051Z,1.60
2023-04-11T16:55:14.892Z,1.45
2023-04-11T16:57:42.553Z,1.33
2023-04-11T17:00:15.363Z,1.50
2023-04-11T17:02:43.122Z,1.55
2023-04-11T17:05:11.255Z,2.03
2023-04-11T17:07:39.435Z,1.70
2023-04-11T17:10:08.586Z,1.70
2023-04-11T17:12:36.310Z,1.60
2023-04-11T17:15:04.214Z,1.77
2023-04-11T17:17:33.766Z,2.55
2023-04-11T17:20:07.403Z,2.33
2023-04-11T17:22:35.045Z,2.45
2023-04-11T17:25:02.748Z,2.70
2023-04-11T17:27:30.596Z,3.70
2023-04-11T17:29:58.233Z,3.58
2023-04-11T17:32:25.943Z,3.42
2023-04-11T17:34:55.399Z,3.45
2023-04-11T17:37:23.019Z,3.10
2023-04-11T17:39:50.754Z,4.05
2023-04-11T17:42:18.554Z,2.90
2023-04-11T17:44:46.421Z,3.10
2023-04-11T17:47:14.134Z,2.90
2023-04-11T17:49:41.830Z,2.83
2023-04-11T17:52:10.960Z,3.10
2023-04-11T17:54:39.874Z,3.42
2023-04-11T17:57:08.254Z,3.80
2023-04-11T17:59:35.849Z,5.18
2023-04-11T18:02:03.588Z,3.38
2023-04-11T18:04:32.300Z,3.17
2023-04-11T18:07:00.156Z,3.80
2023-04-11T18:09:31.784Z,6.82
2023-04-11T18:12:00.293Z,5.05
2023-04-11T18:14:28.277Z,4.45
2023-04-11T18:16:56.100Z,4.50
2023-04-11T18:19:24.121Z,8.45
2023-04-11T18:21:51.998Z,6.07
2023-04-11T18:24:19.826Z,6.82
2023-04-11T18:26:49.006Z,12.85
2023-04-11T18:29:16.693Z,10.23
2023-04-11T18:31:44.362Z,6.03
2023-04-11T18:34:12.421Z,5.28
2023-04-11T18:36:40.653Z,4.18
2023-04-11T18:39:09.008Z,5.05
2023-04-11T18:41:36.812Z,6.22
2023-04-11T18:44:08.037Z,5.88
2023-04-11T18:46:37.085Z,5.57
2023-04-11T18:49:05.807Z,6.57
2023-04-11T18:51:35.484Z,5.03
2023-04-11T18:54:03.201Z,4.32
2023-04-11T18:56:30.853Z,4.15
2023-04-11T19:01:28.702Z,3.42
2023-04-11T19:03:57.866Z,3.83
2023-04-11T19:06:26.458Z,4.05
2023-04-11T19:08:54.848Z,4.40
2023-04-11T19:11:23.072Z,4.60
2023-04-11T19:13:51.766Z,3.42
2023-04-11T19:16:20.910Z,4.28
2023-04-11T19:18:49.895Z,3.60
2023-04-11T19:21:17.800Z,4.43
2023-04-11T19:23:45.726Z,3.63
2023-04-11T19:26:13.637Z,4.40
2023-04-11T19:28:41.249Z,4.40
2023-04-11T19:31:09.841Z,4.47
2023-04-11T19:33:38.870Z,4.28
2023-04-11T19:36:08.295Z,5.28
2023-04-11T19:38:36.253Z,4.28
2023-04-11T19:41:11.687Z,4.57
2023-04-11T19:43:39.483Z,4.97
2023-04-11T19:46:07.607Z,4.95
2023-04-11T19:48:35.481Z,4.72
2023-04-11T19:51:04.335Z,5.13
2023-04-11T19:53:34.883Z,4.78
2023-04-11T19:56:03.390Z,4.88
2023-04-11T19:58:32.162Z,4.55
2023-04-11T20:00:59.910Z,4.32
2023-04-11T20:03:27.948Z,3.83
2023-04-11T20:05:55.756Z,4.28
2023-04-11T20:08:23.478Z,4.35
2023-04-11T20:10:52.585Z,4.57
2023-04-11T20:13:20.791Z,4.65
2023-04-11T20:15:48.437Z,4.05
2023-04-11T20:18:16.476Z,4.63
2023-04-11T20:20:45.417Z,4.28
2023-04-11T20:23:15.387Z,4.18
2023-04-11T20:25:43.601Z,4.47
2023-04-11T20:28:12.598Z,5.70
2023-04-11T20:30:40.441Z,4.85
2023-04-11T20:33:08.108Z,5.20
2023-04-11T20:35:35.982Z,4.72
2023-04-11T20:38:03.638Z,4.45
2023-04-11T20:40:31.261Z,5.18
2023-04-11T20:43:00.233Z,4.22
2023-04-11T20:45:30.683Z,4.72
2023-04-11T20:48:01.564Z,4.15
2023-04-11T20:50:33.272Z,4.30
2023-04-11T20:53:02.339Z,4.30
2023-04-11T20:55:29.974Z,4.32
2023-04-11T20:57:57.674Z,4.65
2023-04-11T21:00:25.904Z,4.55
2023-04-11T21:02:55.029Z,4.45
2023-04-11T21:05:23.033Z,4.25
2023-04-11T21:07:51.597Z,4.25
2023-04-11T21:10:20.906Z,4.00
2023-04-11T21:12:51.340Z,4.97
2023-04-11T21:15:20.284Z,5.18
2023-04-11T21:17:48.879Z,4.43
2023-04-11T21:20:22.143Z,4.57
2023-04-11T21:22:53.828Z,4.82
2023-04-11T21:25:21.774Z,5.50
2023-04-11T21:27:49.783Z,5.45
2023-04-11T21:30:17.482Z,4.70
2023-04-11T21:32:45.494Z,4.97
2023-04-11T21:35:13.237Z,6.32
2023-04-11T21:37:42.214Z,4.95
2023-04-11T21:40:10.512Z,5.75
2023-04-11T21:42:38.151Z,5.88
2023-04-11T21:45:06.535Z,5.75
2023-04-11T21:47:34.169Z,5.55
2023-04-11T21:50:01.999Z,6.30
2023-04-11T21:52:29.791Z,5.75
2023-04-11T21:54:58.826Z,5.97
2023-04-11T21:57:27.147Z,6.38
2023-04-11T21:59:54.779Z,6.82
2023-04-11T22:02:22.648Z,5.50
2023-04-11T22:05:04.595Z,5.85
2023-04-11T22:07:38.970Z,5.60
2023-04-11T22:10:12.309Z,6.00
2023-04-11T22:12:40.255Z,6.13
2023-04-11T22:15:12.370Z,6.22
2023-04-11T22:17:42.295Z,6.95
2023-04-11T22:20:11.172Z,6.78
2023-04-11T22:22:38.860Z,6.85
2023-04-11T22:25:09.856Z,6.85
2023-04-11T22:27:38.257Z,6.93
2023-04-11T22:30:07.335Z,6.78
2023-04-11T22:32:36.994Z,7.50
2023-04-11T22:35:05.325Z,6.90
2023-04-11T22:37:32.982Z,8.07
2023-04-11T22:40:00.685Z,8.70
2023-04-11T22:42:30.102Z,8.23
2023-04-11T22:44:57.752Z,8.88
2023-04-11T22:47:25.391Z,9.48
2023-04-11T22:49:53.051Z,8.77
2023-04-11T22:52:25.809Z,8.77
2023-04-11T22:54:53.509Z,8.65
2023-04-11T22:57:21.394Z,9.52
2023-04-11T22:59:50.550Z,10.77
2023-04-11T23:02:18.240Z,9.43
2023-04-11T23:04:46.359Z,9.57
2023-04-11T23:07:14.136Z,9.93
2023-04-11T23:09:42.515Z,10.88
2023-04-11T23:12:10.146Z,9.27
2023-04-11T23:14:37.853Z,8.93
2023-04-11T23:17:06.910Z,8.13
2023-04-11T23:19:35.318Z,8.68
2023-04-11T23:22:03.068Z,8.80
2023-04-11T23:24:30.781Z,8.32
2023-04-11T23:26:58.575Z,9.13
2023-04-11T23:29:27.561Z,8.35
2023-04-11T23:31:55.318Z,8.93
2023-04-11T23:34:24.341Z,9.60
2023-04-11T23:36:52.811Z,8.68
2023-04-11T23:39:21.483Z,8.52
2023-04-11T23:41:49.124Z,8.82
2023-04-11T23:44:16.880Z,8.90
2023-04-11T23:46:44.483Z,8.38
2023-04-11T23:49:12.112Z,7.55
2023-04-11T23:51:41.072Z,8.50
2023-04-11T23:54:08.754Z,7.80
2023-04-11T23:56:36.344Z,8.45
2023-04-11T23:59:04.049Z,7.68
